createdAt,value
2022-09-10T00:01:59.532Z,11.16
2022-09-10T00:04:27.655Z,11.14
2022-09-10T00:06:55.578Z,11.19
2022-09-10T00:09:23.051Z,11.07
2022-09-10T00:11:49.946Z,10.99
2022-09-10T00:14:21.011Z,11.00
2022-09-10T00:16:47.840Z,11.06
2022-09-10T00:19:15.110Z,11.01
2022-09-10T00:21:42.312Z,10.87
2022-09-10T00:24:08.835Z,10.93
2022-09-10T00:26:39.944Z,10.94
2022-09-10T00:29:11.600Z,10.91
2022-09-10T00:31:38.988Z,10.80
2022-09-10T00:34:06.864Z,10.76
2022-09-10T00:36:36.389Z,10.76
2022-09-10T00:39:06.899Z,10.71
2022-09-10T00:41:35.156Z,10.69
2022-09-10T00:44:25.685Z,10.73
2022-09-10T00:46:53.769Z,10.72
2022-09-10T00:49:43.093Z,10.75
2022-09-10T00:52:10.057Z,10.73
2022-09-10T00:54:38.914Z,10.75
2022-09-10T00:57:12.468Z,10.78
2022-09-10T00:59:43.804Z,10.71
2022-09-10T01:02:10.569Z,10.74
2022-09-10T01:04:38.136Z,10.70
2022-09-10T01:07:06.110Z,10.65
2022-09-10T01:09:32.789Z,10.60
2022-09-10T01:12:21.697Z,10.67
2022-09-10T01:15:29.771Z,10.69
2022-09-10T01:18:25.498Z,10.72
2022-09-10T01:21:01.080Z,10.72
2022-09-10T01:24:05.495Z,10.76
2022-09-10T01:26:41.228Z,10.72
2022-09-10T01:29:23.926Z,10.76
2022-09-10T01:31:59.442Z,10.75
2022-09-10T01:34:35.800Z,10.73
2022-09-10T01:37:08.572Z,10.66
2022-09-10T01:39:35.377Z,10.63
2022-09-10T01:42:02.090Z,10.58
2022-09-10T01:44:47.906Z,10.64
2022-09-10T01:47:19.642Z,10.69
2022-09-10T01:49:57.520Z,10.71
2022-09-10T01:52:42.746Z,10.72
2022-09-10T01:55:09.261Z,10.62
2022-09-10T01:57:48.912Z,10.53
2022-09-10T02:00:18.008Z,10.53
2022-09-10T02:03:00.104Z,10.55
2022-09-10T02:05:28.861Z,10.44
2022-09-10T02:08:00.497Z,10.51
2022-09-10T02:10:27.063Z,10.54
2022-09-10T02:12:54.101Z,10.54
2022-09-10T02:15:22.456Z,10.59
2022-09-10T02:17:49.597Z,10.58
2022-09-10T02:20:16.338Z,10.64
2022-09-10T02:22:49.997Z,10.68
2022-09-10T02:25:16.586Z,10.67
2022-09-10T02:27:44.007Z,10.69
2022-09-10T02:30:11.790Z,10.72
2022-09-10T02:32:38.339Z,10.64
2022-09-10T02:35:05.338Z,10.69
2022-09-10T02:37:31.928Z,10.71
2022-09-10T02:39:58.555Z,10.73
2022-09-10T02:42:27.047Z,10.73
2022-09-10T02:44:53.931Z,10.71
2022-09-10T02:47:20.489Z,10.69
2022-09-10T02:49:47.318Z,10.75
2022-09-10T02:52:13.971Z,10.79
2022-09-10T02:54:40.545Z,10.78
2022-09-10T02:57:07.677Z,10.77
2022-09-10T02:59:34.343Z,10.79
2022-09-10T03:02:00.880Z,10.82
2022-09-10T03:04:27.633Z,10.85
2022-09-10T03:06:54.963Z,10.85
2022-09-10T03:09:22.602Z,10.86
2022-09-10T03:11:50.252Z,10.86
2022-09-10T03:14:20.371Z,10.85
2022-09-10T03:16:47.770Z,10.83
2022-09-10T03:19:14.610Z,10.77
2022-09-10T03:21:41.572Z,10.83
2022-09-10T03:24:10.284Z,10.70
2022-09-10T03:26:37.102Z,10.82
2022-09-10T03:29:03.670Z,10.82
2022-09-10T03:31:31.026Z,10.85
2022-09-10T03:33:57.809Z,10.86
2022-09-10T03:36:24.390Z,10.85
2022-09-10T03:38:50.952Z,10.88
2022-09-10T03:41:17.595Z,10.83
2022-09-10T03:43:44.155Z,10.90
2022-09-10T03:46:12.044Z,10.91
2022-09-10T03:48:39.523Z,10.93
2022-09-10T03:51:06.476Z,10.94
2022-09-10T03:53:33.021Z,10.91
2022-09-10T03:55:59.522Z,10.95
2022-09-10T03:58:26.809Z,10.95
2022-09-10T04:00:53.408Z,10.97
2022-09-10T04:03:20.244Z,10.97
2022-09-10T04:05:47.083Z,10.93
2022-09-10T04:08:14.728Z,10.95
2022-09-10T04:10:42.503Z,10.99
2022-09-10T04:13:09.344Z,11.02
2022-09-10T04:15:37.212Z,11.07
2022-09-10T04:18:04.875Z,11.00
2022-09-10T04:20:31.604Z,10.99
2022-09-10T04:22:58.173Z,11.02
2022-09-10T04:25:24.735Z,11.02
2022-09-10T04:27:51.380Z,11.00
2022-09-10T04:30:19.361Z,11.04
2022-09-10T04:32:46.900Z,11.08
2022-09-10T04:35:15.480Z,11.06
2022-09-10T04:37:43.075Z,11.09
2022-09-10T04:40:10.540Z,11.12
2022-09-10T04:42:37.378Z,11.08
2022-09-10T04:45:04.770Z,11.09
2022-09-10T04:47:31.406Z,11.10
2022-09-10T04:49:58.201Z,11.15
2022-09-10T04:52:24.773Z,10.98
2022-09-10T04:54:51.405Z,11.11
2022-09-10T04:57:17.991Z,11.13
2022-09-10T04:59:44.677Z,11.13
2022-09-10T05:02:11.492Z,11.15
2022-09-10T05:04:38.912Z,11.16
2022-09-10T05:07:05.578Z,11.20
2022-09-10T05:09:33.646Z,11.18
2022-09-10T05:12:01.099Z,11.21
2022-09-10T05:14:28.093Z,11.18
2022-09-10T05:16:55.354Z,11.22
2022-09-10T05:19:22.039Z,11.24
2022-09-10T05:21:49.002Z,11.28
2022-09-10T05:24:15.790Z,11.29
2022-09-10T05:26:42.775Z,11.27
2022-09-10T05:29:09.283Z,11.21
2022-09-10T05:31:37.155Z,11.28
2022-09-10T05:34:03.973Z,11.33
2022-09-10T05:36:33.609Z,11.32
2022-09-10T05:39:02.177Z,11.41
2022-09-10T05:41:29.053Z,11.39
2022-09-10T05:43:55.629Z,11.34
2022-09-10T05:46:22.576Z,11.36
2022-09-10T05:48:49.128Z,11.29
2022-09-10T05:51:16.304Z,11.24
2022-09-10T05:53:43.364Z,11.29
2022-09-10T05:56:09.890Z,11.27
2022-09-10T05:58:36.531Z,11.19
2022-09-10T06:01:03.252Z,11.20
2022-09-10T06:03:29.801Z,11.21
2022-09-10T06:05:56.321Z,11.26
2022-09-10T06:08:23.162Z,11.31
2022-09-10T06:11:00.599Z,11.30
2022-09-10T06:13:27.533Z,11.29
2022-09-10T06:15:54.399Z,11.39
2022-09-10T06:18:21.120Z,11.41
2022-09-10T06:20:50.845Z,11.43
2022-09-10T06:23:18.221Z,11.44
2022-09-10T06:25:44.743Z,11.48
2022-09-10T06:28:12.664Z,11.49
2022-09-10T06:30:39.544Z,11.47
2022-09-10T06:33:06.119Z,11.40
2022-09-10T06:35:33.304Z,11.39
2022-09-10T06:37:59.890Z,11.41
2022-09-10T06:40:29.655Z,11.41
2022-09-10T06:42:56.241Z,11.36
2022-09-10T06:45:22.756Z,11.39
2022-09-10T06:50:37.587Z,11.41
2022-09-10T06:53:04.143Z,11.35
2022-09-10T06:55:30.778Z,11.42
2022-09-10T06:57:59.693Z,11.41
2022-09-10T07:00:26.233Z,11.42
2022-09-10T07:02:52.817Z,11.39
2022-09-10T07:05:19.395Z,11.40
2022-09-10T07:07:46.350Z,11.38
2022-09-10T07:10:12.872Z,11.40
2022-09-10T07:12:39.470Z,11.36
2022-09-10T07:15:06.394Z,11.35
2022-09-10T07:17:35.835Z,11.36
2022-09-10T07:20:02.743Z,11.36
2022-09-10T07:22:29.318Z,11.39
2022-09-10T07:24:56.058Z,11.42
2022-09-10T07:27:22.914Z,11.41
2022-09-10T07:29:49.571Z,11.47
2022-09-10T07:32:16.180Z,11.42
2022-09-10T07:34:43.160Z,11.42
2022-09-10T07:37:09.877Z,11.44
2022-09-10T07:39:36.458Z,11.43
2022-09-10T07:42:03.082Z,11.45
2022-09-10T07:44:29.629Z,11.47
2022-09-10T07:46:56.133Z,11.44
2022-09-10T07:49:22.754Z,11.42
2022-09-10T07:51:59.129Z,11.42
2022-09-10T07:54:28.406Z,11.44
2022-09-10T07:56:55.049Z,11.47
2022-09-10T07:59:21.562Z,11.48
2022-09-10T08:01:48.138Z,11.46
2022-09-10T08:04:14.716Z,11.48
2022-09-10T08:06:41.907Z,11.47
2022-09-10T08:09:08.474Z,11.46
2022-09-10T08:11:35.218Z,11.46
2022-09-10T08:14:01.864Z,11.43
2022-09-10T08:16:28.993Z,11.47
2022-09-10T08:19:00.202Z,11.49
2022-09-10T08:21:27.261Z,11.40
2022-09-10T08:23:54.602Z,11.41
2022-09-10T08:26:24.257Z,11.41
2022-09-10T08:28:52.284Z,11.45
2022-09-10T08:31:19.327Z,11.49
2022-09-10T08:33:50.570Z,11.50
2022-09-10T08:36:18.279Z,11.50
2022-09-10T08:38:45.816Z,11.53
2022-09-10T08:41:32.256Z,11.52
2022-09-10T08:44:03.488Z,11.56
2022-09-10T08:46:38.100Z,11.57
2022-09-10T08:49:37.937Z,11.53
2022-09-10T08:52:14.033Z,11.57
2022-09-10T08:54:50.295Z,11.56
2022-09-10T08:57:47.361Z,11.52
2022-09-10T09:00:21.288Z,11.58
2022-09-10T09:03:02.808Z,11.57
2022-09-10T09:05:47.228Z,11.55
2022-09-10T09:08:17.739Z,11.50
2022-09-10T09:10:54.536Z,11.51
2022-09-10T09:13:55.659Z,11.53
2022-09-10T09:16:48.569Z,11.57
2022-09-10T09:19:45.094Z,11.50
2022-09-10T09:22:15.825Z,11.55
2022-09-10T09:24:54.351Z,11.55
2022-09-10T09:27:21.330Z,11.53
2022-09-10T09:30:14.050Z,11.49
2022-09-10T09:32:44.106Z,11.52
2022-09-10T09:35:29.022Z,11.50
2022-09-10T09:38:32.593Z,11.51
2022-09-10T09:41:08.378Z,11.52
2022-09-10T09:43:42.269Z,11.53
2022-09-10T09:46:16.415Z,11.53
2022-09-10T09:48:44.593Z,11.51
2022-09-10T09:51:15.523Z,11.49
2022-09-10T09:53:46.313Z,11.51
2022-09-10T09:56:29.364Z,11.47
2022-09-10T09:58:59.061Z,11.42
2022-09-10T10:01:27.084Z,11.43
2022-09-10T10:03:58.525Z,11.44
2022-09-10T10:06:34.620Z,11.43
2022-09-10T10:09:20.203Z,11.46
2022-09-10T10:11:55.689Z,11.46
2022-09-10T10:14:31.128Z,11.48
2022-09-10T10:17:01.079Z,11.46
2022-09-10T10:19:40.556Z,11.45
2022-09-10T10:22:19.282Z,11.42
2022-09-10T10:24:50.858Z,11.46
2022-09-10T10:27:35.243Z,11.51
2022-09-10T10:30:24.093Z,11.47
2022-09-10T10:32:59.493Z,11.52
2022-09-10T10:35:39.362Z,11.50
2022-09-10T10:38:29.415Z,11.51
2022-09-10T10:41:05.449Z,11.55
2022-09-10T10:43:34.891Z,11.53
2022-09-10T10:46:11.192Z,11.54
2022-09-10T10:48:41.424Z,11.60
2022-09-10T10:51:19.949Z,11.60
2022-09-10T10:54:23.762Z,11.61
2022-09-10T10:57:11.383Z,11.58
2022-09-10T10:59:53.781Z,11.58
2022-09-10T11:02:46.712Z,11.61
2022-09-10T11:05:31.782Z,11.65
2022-09-10T11:08:08.795Z,11.69
2022-09-10T11:10:46.276Z,11.70
2022-09-10T11:13:13.612Z,11.74
2022-09-10T11:16:04.190Z,11.74
2022-09-10T11:18:41.770Z,11.73
2022-09-10T11:21:20.148Z,11.77
2022-09-10T11:24:16.792Z,11.81
2022-09-10T11:26:54.863Z,11.82
2022-09-10T11:29:36.642Z,11.86
2022-09-10T11:32:15.937Z,11.80
2022-09-10T11:35:22.047Z,11.89
2022-09-10T11:38:20.636Z,11.84
2022-09-10T11:41:07.977Z,11.86
2022-09-10T11:43:49.784Z,11.86
2022-09-10T11:46:43.039Z,11.86
2022-09-10T11:49:16.654Z,11.86
2022-09-10T11:51:45.221Z,11.83
2022-09-10T11:54:24.275Z,11.86
2022-09-10T11:56:54.996Z,11.78
2022-09-10T11:59:42.489Z,11.83
2022-09-10T12:02:27.901Z,11.80
2022-09-10T12:05:18.692Z,11.80
2022-09-10T12:08:00.079Z,11.83
2022-09-10T12:10:49.712Z,11.87
2022-09-10T12:13:16.452Z,11.87
2022-09-10T12:15:56.345Z,11.88
2022-09-10T12:18:28.767Z,11.89
2022-09-10T12:20:59.386Z,11.91
2022-09-10T12:23:27.710Z,11.89
2022-09-10T12:26:00.655Z,11.87
2022-09-10T12:28:42.506Z,11.91
2022-09-10T12:31:11.572Z,11.95
2022-09-10T12:33:43.903Z,11.98
2022-09-10T12:36:15.005Z,12.00
2022-09-10T12:39:20.067Z,11.91
2022-09-10T12:41:46.799Z,11.95
2022-09-10T12:44:25.453Z,11.96
2022-09-10T12:47:13.735Z,11.93
2022-09-10T12:49:58.513Z,11.88
2022-09-10T12:52:51.152Z,11.88
2022-09-10T12:55:36.171Z,11.86
2022-09-10T12:58:24.121Z,11.87
2022-09-10T13:00:58.115Z,11.91
2022-09-10T13:03:27.993Z,11.90
2022-09-10T13:05:57.629Z,11.83
2022-09-10T13:08:45.393Z,11.88
2022-09-10T13:11:19.114Z,11.91
2022-09-10T13:13:54.711Z,11.97
2022-09-10T13:16:27.187Z,11.98
2022-09-10T13:19:19.481Z,11.95
2022-09-10T13:21:47.987Z,11.97
2022-09-10T13:24:33.857Z,11.97
2022-09-10T13:27:17.069Z,11.97
2022-09-10T13:29:52.660Z,11.99
2022-09-10T13:32:29.434Z,12.01
2022-09-10T13:34:58.850Z,12.02
2022-09-10T13:37:39.768Z,12.05
2022-09-10T13:40:36.890Z,12.06
2022-09-10T13:43:15.534Z,12.07
2022-09-10T13:45:50.168Z,12.10
2022-09-10T13:48:23.806Z,12.14
2022-09-10T13:50:59.443Z,12.14
2022-09-10T13:53:28.486Z,12.17
2022-09-10T13:56:03.574Z,12.21
2022-09-10T13:58:36.002Z,12.24
2022-09-10T14:01:05.212Z,12.26
2022-09-10T14:03:37.309Z,12.29
2022-09-10T14:06:08.123Z,12.30
2022-09-10T14:08:49.061Z,12.30
2022-09-10T14:11:22.843Z,12.33
2022-09-10T14:14:05.936Z,12.36
2022-09-10T14:16:35.837Z,12.35
2022-09-10T14:19:07.602Z,12.33
2022-09-10T14:21:34.744Z,12.36
2022-09-10T14:24:01.563Z,12.38
2022-09-10T14:26:31.058Z,12.34
2022-09-10T14:29:24.690Z,12.36
2022-09-10T14:31:51.358Z,12.34
2022-09-10T14:34:32.695Z,12.29
2022-09-10T14:37:25.353Z,12.32
2022-09-10T14:39:52.130Z,12.35
2022-09-10T14:42:32.873Z,12.35
2022-09-10T14:44:59.447Z,12.36
2022-09-10T14:47:32.429Z,12.40
2022-09-10T14:50:32.061Z,12.38
2022-09-10T14:52:59.270Z,12.39
2022-09-10T14:55:28.354Z,12.38
2022-09-10T14:57:56.447Z,12.36
2022-09-10T15:00:24.102Z,12.31
2022-09-10T15:02:55.977Z,12.33
2022-09-10T15:05:22.758Z,12.34
2022-09-10T15:07:49.530Z,12.31
2022-09-10T15:10:17.065Z,12.31
2022-09-10T15:12:47.110Z,12.33
2022-09-10T15:15:17.498Z,12.33
2022-09-10T15:17:44.387Z,12.36
2022-09-10T15:20:16.791Z,12.38
2022-09-10T15:22:44.251Z,12.41
2022-09-10T15:25:43.454Z,12.42
2022-09-10T15:28:09.986Z,12.37
2022-09-10T15:30:36.918Z,12.44
2022-09-10T15:33:05.237Z,12.41
2022-09-10T15:35:31.799Z,12.42
2022-09-10T15:38:01.430Z,12.47
2022-09-10T15:40:28.250Z,12.44
2022-09-10T15:42:54.842Z,12.52
2022-09-10T15:45:21.494Z,12.53
2022-09-10T15:47:48.056Z,12.53
2022-09-10T15:50:23.415Z,12.53
2022-09-10T15:52:50.248Z,12.54
2022-09-10T15:55:19.095Z,12.50
2022-09-10T15:57:49.017Z,12.51
2022-09-10T16:00:16.871Z,12.51
2022-09-10T16:02:47.683Z,12.52
2022-09-10T16:05:16.077Z,12.55
2022-09-10T16:07:47.719Z,12.54
2022-09-10T16:10:15.568Z,12.56
2022-09-10T16:12:42.656Z,12.57
2022-09-10T16:15:09.635Z,12.58
2022-09-10T16:17:36.162Z,12.62
2022-09-10T16:20:02.904Z,12.62
2022-09-10T16:22:30.577Z,12.62
2022-09-10T16:24:57.102Z,12.66
2022-09-10T16:27:24.541Z,12.66
2022-09-10T16:29:51.324Z,12.69
2022-09-10T16:32:17.900Z,12.69
2022-09-10T16:34:44.424Z,12.71
2022-09-10T16:37:10.956Z,12.74
2022-09-10T16:39:37.746Z,12.73
2022-09-10T16:42:04.390Z,12.72
2022-09-10T16:44:32.322Z,12.73
2022-09-10T16:46:59.375Z,12.75
2022-09-10T16:49:27.395Z,12.77
2022-09-10T16:51:54.371Z,12.78
2022-09-10T16:54:22.387Z,12.80
2022-09-10T16:56:50.192Z,12.78
2022-09-10T16:59:22.573Z,12.81
2022-09-10T17:01:51.776Z,12.84
2022-09-10T17:04:28.178Z,12.84
2022-09-10T17:06:56.467Z,12.85
2022-09-10T17:09:24.538Z,12.88
2022-09-10T17:11:51.166Z,12.88
2022-09-10T17:14:17.717Z,12.88
2022-09-10T17:16:44.869Z,12.91
2022-09-10T17:19:14.318Z,12.92
2022-09-10T17:21:43.623Z,12.93
2022-09-10T17:24:12.392Z,12.95
2022-09-10T17:26:40.351Z,12.96
2022-09-10T17:29:15.924Z,12.97
2022-09-10T17:31:43.705Z,12.97
2022-09-10T17:34:14.501Z,12.97
2022-09-10T17:36:46.668Z,12.98
2022-09-10T17:39:14.534Z,12.99
2022-09-10T17:41:41.833Z,13.03
2022-09-10T17:44:11.052Z,13.03
2022-09-10T17:46:38.073Z,13.03
2022-09-10T17:49:05.288Z,13.05
2022-09-10T17:51:34.402Z,13.03
2022-09-10T17:54:03.507Z,13.03
2022-09-10T17:56:30.594Z,13.06
2022-09-10T17:59:03.164Z,13.07
2022-09-10T18:01:36.251Z,13.08
2022-09-10T18:04:04.305Z,13.11
2022-09-10T18:06:32.438Z,13.13
2022-09-10T18:09:00.561Z,13.15
2022-09-10T18:11:30.418Z,13.15
2022-09-10T18:13:58.476Z,13.17
2022-09-10T18:16:27.990Z,13.18
2022-09-10T18:18:58.354Z,13.16
2022-09-10T18:21:27.128Z,13.16
2022-09-10T18:23:57.800Z,13.19
2022-09-10T18:26:27.331Z,13.20
2022-09-10T18:28:53.884Z,13.20
2022-09-10T18:31:21.211Z,13.19
2022-09-10T18:33:47.874Z,13.17
2022-09-10T18:36:17.546Z,13.15
2022-09-10T18:38:44.381Z,13.15
2022-09-10T18:41:18.561Z,13.17
2022-09-10T18:43:46.480Z,13.13
2022-09-10T18:46:13.514Z,13.12
2022-09-10T18:48:40.299Z,13.11
2022-09-10T18:51:10.733Z,13.17
2022-09-10T18:53:38.988Z,13.17
2022-09-10T18:56:07.470Z,13.19
2022-09-10T18:58:36.279Z,13.18
2022-09-10T19:01:11.548Z,13.18
2022-09-10T19:03:42.647Z,13.17
2022-09-10T19:06:15.227Z,13.16
2022-09-10T19:08:48.050Z,13.17
2022-09-10T19:11:17.577Z,13.18
2022-09-10T19:13:49.068Z,13.19
2022-09-10T19:16:16.573Z,13.19
2022-09-10T19:18:43.974Z,13.17
2022-09-10T19:21:10.787Z,13.18
2022-09-10T19:23:37.735Z,13.15
2022-09-10T19:26:05.094Z,13.14
2022-09-10T19:28:35.946Z,13.17
2022-09-10T19:31:04.927Z,13.19
2022-09-10T19:33:32.995Z,13.19
2022-09-10T19:36:07.141Z,13.16
2022-09-10T19:38:37.849Z,13.14
2022-09-10T19:41:09.870Z,13.12
2022-09-10T19:43:36.915Z,13.10
2022-09-10T19:46:05.589Z,13.10
2022-09-10T19:48:32.960Z,13.09
2022-09-10T19:51:01.194Z,13.09
2022-09-10T19:53:27.844Z,13.10
2022-09-10T19:55:54.523Z,13.11
2022-09-10T19:58:21.187Z,13.08
2022-09-10T20:00:47.828Z,13.11
2022-09-10T20:03:15.354Z,13.08
2022-09-10T20:05:44.791Z,13.11
2022-09-10T20:08:11.561Z,13.04
2022-09-10T20:10:38.356Z,13.08
2022-09-10T20:13:05.752Z,13.05
2022-09-10T20:15:32.353Z,13.06
2022-09-10T20:17:59.069Z,13.06
2022-09-10T20:20:25.785Z,12.99
2022-09-10T20:22:52.394Z,13.03
2022-09-10T20:25:19.012Z,13.01
2022-09-10T20:27:45.549Z,12.99
2022-09-10T20:30:12.218Z,12.98
2022-09-10T20:32:38.899Z,12.95
2022-09-10T20:35:05.855Z,12.94
2022-09-10T20:37:32.789Z,12.91
2022-09-10T20:39:59.566Z,12.91
2022-09-10T20:42:27.848Z,12.88
2022-09-10T20:44:55.472Z,12.90
2022-09-10T20:47:24.253Z,12.87
2022-09-10T20:49:50.878Z,12.87
2022-09-10T20:52:18.276Z,12.85
2022-09-10T20:54:44.830Z,12.85
2022-09-10T20:57:11.777Z,12.82
2022-09-10T20:59:38.668Z,12.82
2022-09-10T21:02:05.544Z,12.79
2022-09-10T21:04:32.840Z,12.82
2022-09-10T21:06:59.571Z,12.81
2022-09-10T21:09:26.373Z,12.81
2022-09-10T21:11:52.889Z,12.81
2022-09-10T21:14:19.512Z,12.79
2022-09-10T21:16:47.341Z,12.77
2022-09-10T21:19:17.434Z,12.77
2022-09-10T21:21:45.263Z,12.78
2022-09-10T21:24:14.943Z,12.78
2022-09-10T21:26:43.379Z,12.78
2022-09-10T21:29:18.236Z,12.75
2022-09-10T21:31:45.575Z,12.74
2022-09-10T21:34:13.447Z,12.75
2022-09-10T21:36:41.252Z,12.75
2022-09-10T21:39:12.799Z,12.73
2022-09-10T21:41:42.797Z,12.73
2022-09-10T21:44:14.469Z,12.74
2022-09-10T21:46:44.977Z,12.73
2022-09-10T21:49:12.091Z,12.73
2022-09-10T21:51:39.295Z,12.73
2022-09-10T21:54:06.400Z,12.73
2022-09-10T21:56:33.423Z,12.73
2022-09-10T21:59:00.878Z,12.71
2022-09-10T22:01:30.406Z,12.71
2022-09-10T22:04:00.111Z,12.71
2022-09-10T22:06:29.011Z,12.70
2022-09-10T22:08:58.378Z,12.72
2022-09-10T22:11:30.460Z,12.71
2022-09-10T22:14:03.066Z,12.70
2022-09-10T22:16:31.212Z,12.69
2022-09-10T22:18:59.596Z,12.67
2022-09-10T22:21:26.337Z,12.65
2022-09-10T22:23:53.009Z,12.70
2022-09-10T22:26:22.940Z,12.70
2022-09-10T22:28:54.340Z,12.69
2022-09-10T22:31:25.491Z,12.68
2022-09-10T22:33:57.352Z,12.68
2022-09-10T22:36:28.712Z,12.67
2022-09-10T22:38:59.289Z,12.67
2022-09-10T22:41:27.136Z,12.68
2022-09-10T22:43:53.966Z,12.68
2022-09-10T22:46:21.339Z,12.65
2022-09-10T22:48:47.921Z,12.67
2022-09-10T22:51:17.949Z,12.67
2022-09-10T22:53:45.718Z,12.67
2022-09-10T22:56:17.688Z,12.65
2022-09-10T22:58:45.582Z,12.69
2022-09-10T23:01:16.478Z,12.68
2022-09-10T23:03:44.425Z,12.72
2022-09-10T23:06:14.894Z,12.73
2022-09-10T23:08:47.009Z,12.76
2022-09-10T23:11:16.529Z,12.76
2022-09-10T23:13:44.999Z,12.76
2022-09-10T23:16:19.231Z,12.75
2022-09-10T23:18:50.786Z,12.78
2022-09-10T23:21:18.606Z,12.78
2022-09-10T23:23:47.887Z,12.80
2022-09-10T23:26:15.224Z,12.81
2022-09-10T23:28:42.390Z,12.80
2022-09-10T23:31:13.346Z,12.80
2022-09-10T23:34:06.727Z,12.78
2022-09-10T23:36:35.544Z,12.80
2022-09-10T23:39:04.887Z,12.82
2022-09-10T23:41:31.416Z,12.83
2022-09-10T23:43:58.455Z,12.83
2022-09-10T23:46:25.514Z,12.83
2022-09-10T23:48:52.091Z,12.84
2022-09-10T23:51:20.371Z,12.82
2022-09-10T23:53:48.178Z,12.83
2022-09-10T23:56:20.456Z,12.83
2022-09-10T23:58:47.748Z,12.82
